• Join FlightAware (Why Join?)
  • Login
  • US Flag 
11:38PM EDT


 

Airport Tracker/Info


-or-


 

Live Flight TrackerFlight Track Log ✈ AWI3780 ✈ 26-Apr-2013 ✈ KBTV - KPHL

Flight Track Log - Related Links

Times and Time Zones

All times are in EDT time to prevent confusion due to time zone crossing. See the AWI3780 flight status page for this flight to view local times or setup timezone preferences in your user account.

Time Position Orientation Groundspeed Altitude Reporting Facility
EDT Latitude Longitude Course Direction KTS MPH feet Rate Location/Type
03:58PM 44.5128 -73.2464 296° West 157 181 4,700  Level Boston Center
03:59PM 44.1782 -73.2554 196° South  Level FlightAware Approximate
03:59PM 44.4708 -73.2867 214° Southwest 150 173 7,800  Level Boston Center
04:00PM 44.0823 -73.2938 196° South  Level FlightAware Approximate
04:00PM 44.3978 -73.3031 189° South 212 244 10,800  Level Boston Center
04:01PM 43.9864 -73.3322 196° South  Level FlightAware Approximate
04:01PM 44.3264 -73.3483 204° Southwest 270 311 13,000  Level Boston Center
04:02PM 43.8905 -73.3702 195° South  Level FlightAware Approximate
04:02PM 44.2489 -73.4081 209° Southwest 306 352 15,500  Level Boston Center
04:03PM 44.1692 -73.4675 208° Southwest 325 374 18,100 2,100 Climbing Boston Center
04:04PM 44.0894 -73.5328 210° Southwest 330 380 19,700 1,740 Climbing Boston Center
04:05PM 44.0075 -73.5947 209° Southwest 336 387 21,600 1,680 Climbing Boston Center
04:06PM 43.9236 -73.6594 209° Southwest 343 395 23,100 1,140 Climbing Boston Center
04:07PM 43.8311 -73.7322 210° Southwest 365 420 23,900 960 Climbing Boston Center
04:08PM 43.7364 -73.8050 209° Southwest 377 434 25,100 1,020 Climbing Boston Center
04:09PM 43.6481 -73.8689 208° Southwest 390 449 26,000 420 Climbing Boston Center
04:10PM 43.5514 -73.9469 210° Southwest 401 461 26,000  Level Boston Center
04:11PM 43.4525 -74.0189 208° Southwest 407 468 26,000  Level Boston Center
04:12PM 43.3408 -74.1017 208° Southwest 412 474 26,000  Level Boston Center
04:13PM 43.2458 -74.1789 211° Southwest 412 474 26,000  Level Boston Center
04:14PM 43.1508 -74.2472 208° Southwest 400 460 26,000  Level Boston Center
04:15PM 43.0603 -74.3128 208° Southwest 388 447 26,000  Level Boston Center
04:16PM 42.9675 -74.3836 209° Southwest 382 440 26,000  Level Boston Center
04:17PM 42.8767 -74.4489 208° Southwest 382 440 26,000  Level Boston Center
04:18PM 42.7858 -74.5194 210° Southwest 382 440 26,000  Level Boston Center
04:19PM 42.6928 -74.5869 208° Southwest 382 440 26,000  Level Boston Center
04:20PM 42.5975 -74.6569 208° Southwest 382 440 26,000  Level Boston Center
04:21PM 42.5044 -74.7242 208° Southwest 382 440 26,000  Level Boston Center
04:22PM 42.4094 -74.7936 208° Southwest 382 440 26,000  Level Boston Center
04:23PM 42.3161 -74.8606 208° Southwest 382 440 26,000 -120 Level Boston Center
04:24PM 42.2147 -74.9322 208° Southwest 382 440 25,800 -900 Descending Boston Center
04:26PM 42.0711 -75.0483 211° Southwest 372 428 23,700 -1,860 Descending New York Center
04:27PM 41.9917 -75.1156 212° Southwest 361 415 20,900 -2,400 Descending New York Center
04:28PM 41.9017 -75.1878 211° Southwest 351 404 19,000 -1,020 Descending New York Center
04:29PM 41.8200 -75.2547 211° Southwest 351 404 19,000 -480 Level New York Center
04:30PM 41.7361 -75.3214 211° Southwest 351 404 18,100 -1,380 Descending New York Center
04:31PM 41.6675 -75.3778 212° Southwest 351 404 16,300 -1,800 Descending New York Center
04:32PM 41.5878 -75.4414 211° Southwest 346 398 14,600 -1,800 Descending New York Center
04:33PM 41.5042 -75.5078 211° Southwest 346 398 12,700 -1,320 Descending New York Center
04:34PM 41.4286 -75.5689 211° Southwest 328 377 12,000 -360 Descending New York Center
04:35PM 41.3686 -75.6142 210° Southwest 320 368 12,000  Level New York Center
04:36PM 41.2844 -75.6800 210° Southwest 320 368 12,000  Level New York Center
04:37PM 41.1986 -75.6903 185° South 313 360 12,000  Level New York Center
04:38PM 41.1031 -75.6889 179° South 318 366 12,000  Level New York Center
04:39PM 41.0133 -75.6878 179° South 323 372 12,000 -480 Level New York Center
04:40PM 40.9239 -75.6897 181° South 328 377 11,100 -900 Descending New York Center
04:41PM 40.8383 -75.6889 180° South 328 377 10,300 -600 Descending New York Center
04:42PM 40.7594 -75.6861 178° South 323 372 10,000 -180 Descending New York Center
04:43PM 40.6800 -75.6886 181° South 303 349 10,000  Level New York Center
04:44PM 40.5906 -75.6875 179° South 291 335 10,000  Level New York Center
04:45PM 40.5072 -75.6844 178° South 291 335 10,000  Level New York Center
04:46PM 40.4711 -75.6000 119° Southeast 244 281 10,000  Level New York Center
04:47PM 40.4397 -75.5022 113° Southeast 262 302 10,000 -600 Level New York Center
04:48PM 40.3608 -75.4397 149° Southeast 292 336 8,900 -1,140 Descending New York Center
04:49PM 40.2942 -75.3833 147° Southeast 300 345 7,800 -1,140 Descending New York Center
04:50PM 40.2253 -75.3353 152° Southeast 289 333 6,700 -900 Descending New York Center
04:51PM 40.1667 -75.2908 150° Southeast 279 321 6,000 -420 Descending New York Center
04:52PM 40.0997 -75.2403 150° Southeast 279 321 5,900 -300 Descending New York Center
04:52PM 40.0667 -75.2167 151° Southeast 276 318 5,600 -1,200 Descending Philadelphia TRACON
04:53PM 40.0000 -75.1833 159° South 255 293 4,300 -900 Descending Philadelphia TRACON
04:54PM 39.9333 -75.1667 169° South 237 273 4,000 -180 Descending Philadelphia TRACON
04:56PM 39.8667 -75.1333 159° South 204 235 4,000  Level Philadelphia TRACON